Погода Негомбона неделю

Западная провинция, Шри-Ланка

04 - 10 марта
  • 04марта
    Сегодня
    +24°
    +35°
    Ясно и безоблачно
    ВремяПогодаТемператураВлажностьДавлениеВетер, м/сВероятность осадков
    02:30Ясно и безоблачно+26°C87 %758 мм2.5 м/с2 %
    05:30Ясно и безоблачно+25°C90 %758 мм0.5 м/с2 %
    08:30Практически безоблачно+28°C79 %759 мм1.2 м/с2 %
    11:30Ясно и безоблачно+34°C63 %759 мм2.6 м/с2 %
    14:30Ясно и безоблачно+34°C67 %756 мм5.6 м/с2 %
    17:30Ясно и безоблачно+31°C67 %757 мм4.0 м/с1 %
    20:30Ясно и безоблачно+28°C70 %759 мм2.1 м/с2 %
    23:30Ясно и безоблачно+26°C76 %759 мм1.0 м/с2 %
  • 05марта
    Вторник
    +25°
    +34°
    Облачно с прояснениями
    ВремяПогодаТемператураВлажностьДавлениеВетер, м/сВероятность осадков
    02:30Ясно и безоблачно+25°C83 %758 мм2.1 м/с3 %
    05:30Небольшая облачность+24°C91 %758 мм2.3 м/с2 %
    08:30Облачно с прояснениями+28°C77 %760 мм2.4 м/с2 %
    11:30Облачно с прояснениями+34°C61 %760 мм2.8 м/с2 %
    14:30Облачно с прояснениями+34°C62 %757 мм4.7 м/с4 %
    17:30Небольшая облачность+30°C68 %757 мм4.0 м/с5 %
    20:30Облачно с прояснениями+28°C71 %759 мм2.2 м/с2 %
    23:30Облачно с прояснениями+27°C76 %760 мм2.0 м/с4 %
  • 06марта
    Среда
    +24°
    +33°
    Облачно с прояснениями
    ВремяПогодаТемператураВлажностьДавлениеВетер, м/сВероятность осадков
    02:30Облачно с прояснениями+26°C80 %758 мм2.1 м/с10 %
    05:30Облачно с прояснениями+26°C80 %758 мм0.7 м/с14 %
    08:30Облачно с прояснениями+29°C74 %760 мм0.1 м/с18 %
    11:30Облачно с прояснениями+32°C69 %760 мм3.5 м/с17 %
    14:30Облачно с прояснениями+33°C74 %757 мм3.5 м/с16 %
    17:30Облачно с прояснениями+30°C72 %757 мм3.4 м/с13 %
    20:30Облачно с прояснениями+28°C78 %759 мм1.6 м/с2 %
    23:30Облачно с прояснениями+26°C84 %759 мм1.0 м/с3 %
  • 07марта
    Четверг
    +25°
    +34°
    Облачно с прояснениями
    ВремяПогодаТемператураВлажностьДавлениеВетер, м/сВероятность осадков
    02:30Облачно с прояснениями+25°C88 %757 мм1.6 м/с3 %
    05:30Облачно с прояснениями+25°C88 %758 мм1.0 м/с10 %
    08:30Облачно с прояснениями+29°C75 %759 мм1.5 м/с8 %
    11:30Облачно с прояснениями+33°C66 %759 мм3.1 м/с11 %
    14:30Облачно с прояснениями+34°C72 %757 мм3.9 м/с13 %
    17:30Облачно с прояснениями+30°C76 %757 мм3.5 м/с12 %
    20:30Облачно с прояснениями+28°C79 %759 мм2.5 м/с2 %
    23:30Облачно с прояснениями+27°C82 %759 мм2.2 м/с2 %
  • 08марта
    Пятница
    +24°
    +34°
    Облачно с прояснениями
    ВремяПогодаТемператураВлажностьДавлениеВетер, м/сВероятность осадков
    02:30Облачно с прояснениями+26°C87 %757 мм2.0 м/с11 %
    05:30Облачно с прояснениями+26°C90 %758 мм1.4 м/с24 %
    08:30Облачно с прояснениями+29°C81 %759 мм0.6 м/с18 %
    11:30Облачно с прояснениями+32°C73 %759 мм1.8 м/с9 %
    14:30Облачно с прояснениями+33°C69 %757 мм2.7 м/с24 %
    17:30Небольшая облачность+31°C71 %757 мм3.5 м/с20 %
    20:30Ясно и безоблачно+28°C79 %759 мм2.0 м/с7 %
    23:30Ясно и безоблачно+27°C83 %759 мм2.0 м/с15 %
Мы используем cookies
Соглашаюсь